sensor_id;sensor_type;location;lat;lon;timestamp;P1;durP1;ratioP1;P2;durP2;ratioP2
71343;SDS011;59146;43.850;25.948;2022-08-21T00:00:22;14.63;;;6.10;;
71343;SDS011;59146;43.850;25.948;2022-08-21T00:02:53;15.95;;;5.93;;
71343;SDS011;59146;43.850;25.948;2022-08-21T00:05:25;15.55;;;6.50;;
71343;SDS011;59146;43.850;25.948;2022-08-21T00:07:51;15.55;;;6.45;;
71343;SDS011;59146;43.850;25.948;2022-08-21T00:10:17;16.42;;;6.40;;
71343;SDS011;59146;43.850;25.948;2022-08-21T00:12:43;22.05;;;8.15;;
71343;SDS011;59146;43.850;25.948;2022-08-21T00:15:11;15.60;;;7.47;;
71343;SDS011;59146;43.850;25.948;2022-08-21T00:17:39;16.42;;;7.57;;
71343;SDS011;59146;43.850;25.948;2022-08-21T00:20:05;20.42;;;7.35;;
71343;SDS011;59146;43.850;25.948;2022-08-21T00:22:33;14.50;;;6.82;;
71343;SDS011;59146;43.850;25.948;2022-08-21T00:24:59;17.20;;;7.22;;
71343;SDS011;59146;43.850;25.948;2022-08-21T00:27:24;13.48;;;6.93;;
71343;SDS011;59146;43.850;25.948;2022-08-21T00:29:50;16.13;;;6.85;;
71343;SDS011;59146;43.850;25.948;2022-08-21T00:32:23;18.95;;;7.47;;
71343;SDS011;59146;43.850;25.948;2022-08-21T00:34:50;12.85;;;7.13;;
71343;SDS011;59146;43.850;25.948;2022-08-21T00:37:16;14.63;;;8.40;;
71343;SDS011;59146;43.850;25.948;2022-08-21T00:39:41;19.88;;;8.13;;
71343;SDS011;59146;43.850;25.948;2022-08-21T00:42:08;18.73;;;8.85;;
71343;SDS011;59146;43.850;25.948;2022-08-21T00:44:34;16.73;;;9.02;;
71343;SDS011;59146;43.850;25.948;2022-08-21T00:46:59;21.38;;;8.23;;
71343;SDS011;59146;43.850;25.948;2022-08-21T00:49:25;16.55;;;8.25;;
71343;SDS011;59146;43.850;25.948;2022-08-21T00:51:54;23.70;;;8.48;;
71343;SDS011;59146;43.850;25.948;2022-08-21T00:54:23;16.13;;;8.23;;
71343;SDS011;59146;43.850;25.948;2022-08-21T00:56:53;15.02;;;8.30;;
71343;SDS011;59146;43.850;25.948;2022-08-21T00:59:21;15.90;;;7.57;;
71343;SDS011;59146;43.850;25.948;2022-08-21T01:01:48;17.00;;;9.15;;
71343;SDS011;59146;43.850;25.948;2022-08-21T01:04:15;17.20;;;8.30;;
71343;SDS011;59146;43.850;25.948;2022-08-21T01:06:41;15.55;;;8.30;;
71343;SDS011;59146;43.850;25.948;2022-08-21T01:09:07;16.25;;;9.38;;
71343;SDS011;59146;43.850;25.948;2022-08-21T01:11:33;15.35;;;9.05;;
71343;SDS011;59146;43.850;25.948;2022-08-21T01:13:59;21.05;;;8.93;;
71343;SDS011;59146;43.850;25.948;2022-08-21T01:16:25;15.73;;;8.90;;
71343;SDS011;59146;43.850;25.948;2022-08-21T01:18:50;20.65;;;9.57;;
71343;SDS011;59146;43.850;25.948;2022-08-21T01:21:18;13.90;;;8.50;;
71343;SDS011;59146;43.850;25.948;2022-08-21T01:23:47;16.60;;;9.07;;
71343;SDS011;59146;43.850;25.948;2022-08-21T01:26:15;20.63;;;9.63;;
71343;SDS011;59146;43.850;25.948;2022-08-21T01:28:48;17.88;;;9.15;;
71343;SDS011;59146;43.850;25.948;2022-08-21T01:31:19;19.13;;;8.75;;
71343;SDS011;59146;43.850;25.948;2022-08-21T01:33:48;13.93;;;9.07;;
71343;SDS011;59146;43.850;25.948;2022-08-21T01:36:13;19.73;;;9.63;;
71343;SDS011;59146;43.850;25.948;2022-08-21T01:38:38;18.58;;;9.57;;
71343;SDS011;59146;43.850;25.948;2022-08-21T01:41:04;17.67;;;9.63;;
71343;SDS011;59146;43.850;25.948;2022-08-21T01:43:29;18.30;;;9.43;;
71343;SDS011;59146;43.850;25.948;2022-08-21T01:45:55;14.00;;;8.85;;
71343;SDS011;59146;43.850;25.948;2022-08-21T01:48:20;14.23;;;9.00;;
71343;SDS011;59146;43.850;25.948;2022-08-21T01:50:46;18.45;;;9.07;;
71343;SDS011;59146;43.850;25.948;2022-08-21T01:53:11;18.58;;;9.55;;
71343;SDS011;59146;43.850;25.948;2022-08-21T01:55:37;13.35;;;8.88;;
71343;SDS011;59146;43.850;25.948;2022-08-21T01:58:02;17.00;;;9.93;;
71343;SDS011;59146;43.850;25.948;2022-08-21T02:00:28;13.27;;;9.13;;
71343;SDS011;59146;43.850;25.948;2022-08-21T02:02:53;29.92;;;9.77;;
71343;SDS011;59146;43.850;25.948;2022-08-21T02:05:19;17.83;;;9.55;;
71343;SDS011;59146;43.850;25.948;2022-08-21T02:07:47;15.73;;;9.32;;
71343;SDS011;59146;43.850;25.948;2022-08-21T02:10:15;14.57;;;8.95;;
71343;SDS011;59146;43.850;25.948;2022-08-21T02:12:43;16.58;;;9.38;;
71343;SDS011;59146;43.850;25.948;2022-08-21T02:15:09;19.80;;;9.57;;
71343;SDS011;59146;43.850;25.948;2022-08-21T02:17:38;17.35;;;9.40;;
71343;SDS011;59146;43.850;25.948;2022-08-21T02:20:09;17.88;;;9.23;;
71343;SDS011;59146;43.850;25.948;2022-08-21T02:22:36;21.42;;;9.98;;
71343;SDS011;59146;43.850;25.948;2022-08-21T02:25:02;15.85;;;9.35;;
71343;SDS011;59146;43.850;25.948;2022-08-21T02:27:27;17.95;;;9.68;;
71343;SDS011;59146;43.850;25.948;2022-08-21T02:29:54;19.13;;;9.48;;
71343;SDS011;59146;43.850;25.948;2022-08-21T02:32:21;18.60;;;10.18;;
71343;SDS011;59146;43.850;25.948;2022-08-21T02:34:47;19.70;;;9.65;;
71343;SDS011;59146;43.850;25.948;2022-08-21T02:37:12;17.00;;;9.20;;
71343;SDS011;59146;43.850;25.948;2022-08-21T02:39:37;17.33;;;9.20;;
71343;SDS011;59146;43.850;25.948;2022-08-21T02:42:03;14.38;;;8.43;;
71343;SDS011;59146;43.850;25.948;2022-08-21T02:44:28;10.93;;;8.40;;
71343;SDS011;59146;43.850;25.948;2022-08-21T02:46:54;19.33;;;9.82;;
71343;SDS011;59146;43.850;25.948;2022-08-21T02:49:19;17.13;;;9.85;;
71343;SDS011;59146;43.850;25.948;2022-08-21T02:51:45;16.48;;;9.30;;
71343;SDS011;59146;43.850;25.948;2022-08-21T02:54:10;17.88;;;10.05;;
71343;SDS011;59146;43.850;25.948;2022-08-21T02:56:35;16.10;;;9.25;;
71343;SDS011;59146;43.850;25.948;2022-08-21T02:59:01;23.73;;;10.15;;
71343;SDS011;59146;43.850;25.948;2022-08-21T03:01:27;16.88;;;9.48;;
71343;SDS011;59146;43.850;25.948;2022-08-21T03:03:52;15.32;;;9.40;;
71343;SDS011;59146;43.850;25.948;2022-08-21T03:06:20;25.25;;;9.60;;
71343;SDS011;59146;43.850;25.948;2022-08-21T03:08:46;22.88;;;9.70;;
71343;SDS011;59146;43.850;25.948;2022-08-21T03:11:13;20.40;;;8.95;;
71343;SDS011;59146;43.850;25.948;2022-08-21T03:13:39;17.20;;;9.27;;
71343;SDS011;59146;43.850;25.948;2022-08-21T03:16:05;18.88;;;9.63;;
71343;SDS011;59146;43.850;25.948;2022-08-21T03:18:31;16.60;;;9.07;;
71343;SDS011;59146;43.850;25.948;2022-08-21T03:20:57;16.23;;;9.68;;
71343;SDS011;59146;43.850;25.948;2022-08-21T03:23:22;21.08;;;9.77;;
71343;SDS011;59146;43.850;25.948;2022-08-21T03:25:48;18.13;;;9.05;;
71343;SDS011;59146;43.850;25.948;2022-08-21T03:28:16;13.77;;;9.50;;
71343;SDS011;59146;43.850;25.948;2022-08-21T03:30:45;26.08;;;9.45;;
71343;SDS011;59146;43.850;25.948;2022-08-21T03:33:12;22.42;;;11.43;;
71343;SDS011;59146;43.850;25.948;2022-08-21T03:35:37;19.65;;;10.05;;
71343;SDS011;59146;43.850;25.948;2022-08-21T03:38:03;20.77;;;10.25;;
71343;SDS011;59146;43.850;25.948;2022-08-21T03:40:28;20.00;;;10.30;;
71343;SDS011;59146;43.850;25.948;2022-08-21T03:42:54;21.58;;;9.75;;
71343;SDS011;59146;43.850;25.948;2022-08-21T03:45:20;22.00;;;10.38;;
71343;SDS011;59146;43.850;25.948;2022-08-21T03:50:23;24.45;;;9.73;;
71343;SDS011;59146;43.850;25.948;2022-08-21T03:52:51;17.15;;;9.15;;
71343;SDS011;59146;43.850;25.948;2022-08-21T03:55:17;13.10;;;9.07;;
71343;SDS011;59146;43.850;25.948;2022-08-21T03:57:42;14.65;;;9.30;;
71343;SDS011;59146;43.850;25.948;2022-08-21T04:00:09;17.98;;;10.38;;
71343;SDS011;59146;43.850;25.948;2022-08-21T04:02:37;19.33;;;8.82;;
71343;SDS011;59146;43.850;25.948;2022-08-21T04:05:06;19.33;;;9.38;;
71343;SDS011;59146;43.850;25.948;2022-08-21T04:07:32;22.75;;;8.88;;
71343;SDS011;59146;43.850;25.948;2022-08-21T04:09:58;19.23;;;8.45;;
71343;SDS011;59146;43.850;25.948;2022-08-21T04:12:23;16.73;;;7.93;;
71343;SDS011;59146;43.850;25.948;2022-08-21T04:14:49;20.80;;;9.10;;
71343;SDS011;59146;43.850;25.948;2022-08-21T04:17:16;17.20;;;8.60;;
71343;SDS011;59146;43.850;25.948;2022-08-21T04:19:42;18.98;;;9.35;;
71343;SDS011;59146;43.850;25.948;2022-08-21T04:22:08;18.15;;;8.82;;
71343;SDS011;59146;43.850;25.948;2022-08-21T04:24:33;20.55;;;8.98;;
71343;SDS011;59146;43.850;25.948;2022-08-21T04:26:59;16.85;;;8.63;;
71343;SDS011;59146;43.850;25.948;2022-08-21T04:29:25;20.08;;;8.32;;
71343;SDS011;59146;43.850;25.948;2022-08-21T04:31:50;18.65;;;8.77;;
71343;SDS011;59146;43.850;25.948;2022-08-21T04:34:17;15.80;;;8.60;;
71343;SDS011;59146;43.850;25.948;2022-08-21T04:36:43;17.92;;;8.95;;
71343;SDS011;59146;43.850;25.948;2022-08-21T04:39:08;14.63;;;7.72;;
71343;SDS011;59146;43.850;25.948;2022-08-21T04:41:34;15.30;;;7.40;;
71343;SDS011;59146;43.850;25.948;2022-08-21T04:44:00;20.08;;;7.72;;
71343;SDS011;59146;43.850;25.948;2022-08-21T04:46:26;16.58;;;8.23;;
71343;SDS011;59146;43.850;25.948;2022-08-21T04:48:51;15.38;;;7.72;;
71343;SDS011;59146;43.850;25.948;2022-08-21T04:51:18;13.80;;;7.85;;
71343;SDS011;59146;43.850;25.948;2022-08-21T04:53:52;15.98;;;8.07;;
71343;SDS011;59146;43.850;25.948;2022-08-21T04:59:18;16.58;;;8.32;;
71343;SDS011;59146;43.850;25.948;2022-08-21T05:01:50;17.10;;;8.18;;
71343;SDS011;59146;43.850;25.948;2022-08-21T05:04:20;14.00;;;7.75;;
71343;SDS011;59146;43.850;25.948;2022-08-21T05:06:49;21.95;;;7.78;;
71343;SDS011;59146;43.850;25.948;2022-08-21T05:09:18;15.75;;;8.23;;
71343;SDS011;59146;43.850;25.948;2022-08-21T05:11:45;16.02;;;7.82;;
71343;SDS011;59146;43.850;25.948;2022-08-21T05:14:11;14.35;;;7.78;;
71343;SDS011;59146;43.850;25.948;2022-08-21T05:16:37;19.00;;;8.35;;
71343;SDS011;59146;43.850;25.948;2022-08-21T05:19:06;14.93;;;8.20;;
71343;SDS011;59146;43.850;25.948;2022-08-21T05:21:33;15.75;;;7.80;;
71343;SDS011;59146;43.850;25.948;2022-08-21T05:23:59;12.15;;;7.88;;
71343;SDS011;59146;43.850;25.948;2022-08-21T05:26:25;11.50;;;7.53;;
71343;SDS011;59146;43.850;25.948;2022-08-21T05:28:50;17.17;;;7.18;;
71343;SDS011;59146;43.850;25.948;2022-08-21T05:31:17;19.23;;;7.93;;
71343;SDS011;59146;43.850;25.948;2022-08-21T05:33:42;16.88;;;7.50;;
71343;SDS011;59146;43.850;25.948;2022-08-21T05:36:08;12.15;;;7.70;;
71343;SDS011;59146;43.850;25.948;2022-08-21T05:38:34;19.25;;;7.85;;
71343;SDS011;59146;43.850;25.948;2022-08-21T05:40:59;15.18;;;8.13;;
71343;SDS011;59146;43.850;25.948;2022-08-21T05:43:25;16.95;;;7.75;;
71343;SDS011;59146;43.850;25.948;2022-08-21T05:45:50;18.33;;;8.13;;
71343;SDS011;59146;43.850;25.948;2022-08-21T05:48:17;15.10;;;7.95;;
71343;SDS011;59146;43.850;25.948;2022-08-21T05:50:46;15.80;;;8.18;;
71343;SDS011;59146;43.850;25.948;2022-08-21T05:53:13;15.00;;;7.53;;
71343;SDS011;59146;43.850;25.948;2022-08-21T05:55:40;13.48;;;7.25;;
71343;SDS011;59146;43.850;25.948;2022-08-21T05:58:06;12.07;;;7.60;;
71343;SDS011;59146;43.850;25.948;2022-08-21T06:00:32;12.57;;;7.22;;
71343;SDS011;59146;43.850;25.948;2022-08-21T06:02:58;13.48;;;8.32;;
71343;SDS011;59146;43.850;25.948;2022-08-21T06:05:25;11.63;;;8.07;;
71343;SDS011;59146;43.850;25.948;2022-08-21T06:07:51;13.65;;;8.55;;
71343;SDS011;59146;43.850;25.948;2022-08-21T06:10:17;13.20;;;8.23;;
71343;SDS011;59146;43.850;25.948;2022-08-21T06:12:43;14.23;;;8.40;;
71343;SDS011;59146;43.850;25.948;2022-08-21T06:15:08;16.83;;;7.97;;
71343;SDS011;59146;43.850;25.948;2022-08-21T06:17:34;12.40;;;7.63;;
71343;SDS011;59146;43.850;25.948;2022-08-21T06:19:59;15.55;;;7.88;;
71343;SDS011;59146;43.850;25.948;2022-08-21T06:22:25;20.48;;;8.30;;
71343;SDS011;59146;43.850;25.948;2022-08-21T06:24:50;13.93;;;7.28;;
71343;SDS011;59146;43.850;25.948;2022-08-21T06:27:16;11.90;;;8.20;;
71343;SDS011;59146;43.850;25.948;2022-08-21T06:29:42;16.50;;;7.35;;
71343;SDS011;59146;43.850;25.948;2022-08-21T06:32:10;13.57;;;8.13;;
71343;SDS011;59146;43.850;25.948;2022-08-21T06:34:37;24.88;;;8.65;;
71343;SDS011;59146;43.850;25.948;2022-08-21T06:37:04;21.15;;;8.98;;
71343;SDS011;59146;43.850;25.948;2022-08-21T06:39:30;16.42;;;7.68;;
71343;SDS011;59146;43.850;25.948;2022-08-21T06:41:56;12.65;;;7.30;;
71343;SDS011;59146;43.850;25.948;2022-08-21T06:44:22;10.63;;;7.97;;
71343;SDS011;59146;43.850;25.948;2022-08-21T06:46:47;16.65;;;7.72;;
71343;SDS011;59146;43.850;25.948;2022-08-21T06:49:13;18.73;;;7.80;;
71343;SDS011;59146;43.850;25.948;2022-08-21T06:51:38;15.88;;;7.97;;
71343;SDS011;59146;43.850;25.948;2022-08-21T06:54:04;13.27;;;7.10;;
71343;SDS011;59146;43.850;25.948;2022-08-21T06:56:30;13.75;;;7.07;;
71343;SDS011;59146;43.850;25.948;2022-08-21T06:58:56;19.98;;;8.07;;
71343;SDS011;59146;43.850;25.948;2022-08-21T07:01:23;14.65;;;6.97;;
71343;SDS011;59146;43.850;25.948;2022-08-21T07:03:50;13.23;;;6.68;;
71343;SDS011;59146;43.850;25.948;2022-08-21T07:06:15;11.27;;;6.95;;
71343;SDS011;59146;43.850;25.948;2022-08-21T07:08:42;10.73;;;5.82;;
71343;SDS011;59146;43.850;25.948;2022-08-21T07:11:12;13.05;;;6.65;;
71343;SDS011;59146;43.850;25.948;2022-08-21T07:13:41;13.20;;;6.70;;
71343;SDS011;59146;43.850;25.948;2022-08-21T07:16:07;15.57;;;6.30;;
71343;SDS011;59146;43.850;25.948;2022-08-21T07:18:33;13.27;;;6.32;;
71343;SDS011;59146;43.850;25.948;2022-08-21T07:21:00;12.20;;;6.60;;
71343;SDS011;59146;43.850;25.948;2022-08-21T07:23:29;19.93;;;8.00;;
71343;SDS011;59146;43.850;25.948;2022-08-21T07:25:57;17.90;;;7.07;;
71343;SDS011;59146;43.850;25.948;2022-08-21T07:28:24;12.85;;;6.97;;
71343;SDS011;59146;43.850;25.948;2022-08-21T07:30:50;16.90;;;6.40;;
71343;SDS011;59146;43.850;25.948;2022-08-21T07:33:18;12.43;;;6.43;;
71343;SDS011;59146;43.850;25.948;2022-08-21T07:35:43;13.23;;;6.93;;
71343;SDS011;59146;43.850;25.948;2022-08-21T07:38:09;17.67;;;6.93;;
71343;SDS011;59146;43.850;25.948;2022-08-21T07:40:34;15.77;;;6.47;;
71343;SDS011;59146;43.850;25.948;2022-08-21T07:43:00;13.82;;;6.60;;
71343;SDS011;59146;43.850;25.948;2022-08-21T07:45:25;17.08;;;6.72;;
71343;SDS011;59146;43.850;25.948;2022-08-21T07:47:51;12.88;;;6.65;;
71343;SDS011;59146;43.850;25.948;2022-08-21T07:50:17;13.63;;;7.07;;
71343;SDS011;59146;43.850;25.948;2022-08-21T07:52:43;12.88;;;5.53;;
71343;SDS011;59146;43.850;25.948;2022-08-21T07:55:13;13.85;;;6.55;;
71343;SDS011;59146;43.850;25.948;2022-08-21T07:57:41;18.35;;;6.85;;
71343;SDS011;59146;43.850;25.948;2022-08-21T08:00:07;11.30;;;5.97;;
71343;SDS011;59146;43.850;25.948;2022-08-21T08:02:36;15.73;;;6.18;;
71343;SDS011;59146;43.850;25.948;2022-08-21T08:05:03;13.30;;;6.65;;
71343;SDS011;59146;43.850;25.948;2022-08-21T08:07:30;15.85;;;6.05;;
71343;SDS011;59146;43.850;25.948;2022-08-21T08:09:55;18.88;;;7.50;;
71343;SDS011;59146;43.850;25.948;2022-08-21T08:12:22;14.60;;;7.28;;
71343;SDS011;59146;43.850;25.948;2022-08-21T08:14:47;11.90;;;6.40;;
71343;SDS011;59146;43.850;25.948;2022-08-21T08:17:13;14.90;;;6.50;;
71343;SDS011;59146;43.850;25.948;2022-08-21T08:19:38;11.50;;;6.32;;
71343;SDS011;59146;43.850;25.948;2022-08-21T08:22:17;16.20;;;7.78;;
71343;SDS011;59146;43.850;25.948;2022-08-21T08:24:44;16.50;;;6.85;;
71343;SDS011;59146;43.850;25.948;2022-08-21T08:27:11;14.75;;;7.45;;
71343;SDS011;59146;43.850;25.948;2022-08-21T08:29:37;13.65;;;6.60;;
71343;SDS011;59146;43.850;25.948;2022-08-21T08:32:03;15.90;;;7.10;;
71343;SDS011;59146;43.850;25.948;2022-08-21T08:34:32;16.58;;;6.63;;
71343;SDS011;59146;43.850;25.948;2022-08-21T08:36:58;8.77;;;5.93;;
71343;SDS011;59146;43.850;25.948;2022-08-21T08:39:23;19.05;;;7.75;;
71343;SDS011;59146;43.850;25.948;2022-08-21T08:41:49;15.57;;;7.53;;
71343;SDS011;59146;43.850;25.948;2022-08-21T08:44:24;18.30;;;7.20;;
71343;SDS011;59146;43.850;25.948;2022-08-21T08:46:50;12.65;;;6.80;;
71343;SDS011;59146;43.850;25.948;2022-08-21T08:49:24;22.70;;;7.20;;
71343;SDS011;59146;43.850;25.948;2022-08-21T08:51:55;17.30;;;7.03;;
71343;SDS011;59146;43.850;25.948;2022-08-21T08:54:25;14.70;;;6.57;;
71343;SDS011;59146;43.850;25.948;2022-08-21T08:57:15;16.52;;;6.35;;
71343;SDS011;59146;43.850;25.948;2022-08-21T08:59:43;16.58;;;6.85;;
71343;SDS011;59146;43.850;25.948;2022-08-21T09:02:13;15.43;;;6.43;;
71343;SDS011;59146;43.850;25.948;2022-08-21T09:04:40;13.20;;;6.28;;
71343;SDS011;59146;43.850;25.948;2022-08-21T09:07:25;18.98;;;6.65;;
71343;SDS011;59146;43.850;25.948;2022-08-21T09:10:11;19.02;;;7.45;;
71343;SDS011;59146;43.850;25.948;2022-08-21T09:15:36;18.17;;;6.15;;
71343;SDS011;59146;43.850;25.948;2022-08-21T09:18:53;16.95;;;6.80;;
71343;SDS011;59146;43.850;25.948;2022-08-21T09:24:32;16.67;;;6.68;;
71343;SDS011;59146;43.850;25.948;2022-08-21T09:27:07;16.42;;;6.63;;
71343;SDS011;59146;43.850;25.948;2022-08-21T09:29:35;15.93;;;6.50;;
71343;SDS011;59146;43.850;25.948;2022-08-21T09:32:10;10.55;;;6.70;;
71343;SDS011;59146;43.850;25.948;2022-08-21T09:34:41;11.65;;;6.70;;
71343;SDS011;59146;43.850;25.948;2022-08-21T09:37:15;10.48;;;6.60;;
71343;SDS011;59146;43.850;25.948;2022-08-21T09:39:42;14.30;;;6.53;;
71343;SDS011;59146;43.850;25.948;2022-08-21T09:42:09;13.98;;;5.80;;
71343;SDS011;59146;43.850;25.948;2022-08-21T09:44:39;13.70;;;6.60;;
71343;SDS011;59146;43.850;25.948;2022-08-21T09:47:08;16.27;;;7.20;;
71343;SDS011;59146;43.850;25.948;2022-08-21T09:49:36;17.60;;;6.68;;
71343;SDS011;59146;43.850;25.948;2022-08-21T09:52:06;17.15;;;5.97;;
71343;SDS011;59146;43.850;25.948;2022-08-21T09:54:42;15.38;;;7.03;;
71343;SDS011;59146;43.850;25.948;2022-08-21T09:59:54;17.30;;;6.80;;
71343;SDS011;59146;43.850;25.948;2022-08-21T10:04:59;13.05;;;6.72;;
71343;SDS011;59146;43.850;25.948;2022-08-21T10:07:28;16.58;;;7.20;;
71343;SDS011;59146;43.850;25.948;2022-08-21T10:10:30;12.40;;;6.82;;
71343;SDS011;59146;43.850;25.948;2022-08-21T10:32:13;14.18;;;6.55;;
71343;SDS011;59146;43.850;25.948;2022-08-21T10:34:48;16.15;;;6.50;;
71343;SDS011;59146;43.850;25.948;2022-08-21T10:47:55;14.77;;;6.38;;
71343;SDS011;59146;43.850;25.948;2022-08-21T10:50:41;11.68;;;6.03;;
71343;SDS011;59146;43.850;25.948;2022-08-21T10:53:36;11.32;;;6.63;;
71343;SDS011;59146;43.850;25.948;2022-08-21T10:58:45;15.90;;;6.47;;
71343;SDS011;59146;43.850;25.948;2022-08-21T11:04:31;15.43;;;7.00;;
71343;SDS011;59146;43.850;25.948;2022-08-21T11:09:46;14.68;;;6.68;;
71343;SDS011;59146;43.850;25.948;2022-08-21T11:12:20;14.73;;;5.97;;
71343;SDS011;59146;43.850;25.948;2022-08-21T11:17:32;21.55;;;6.25;;
71343;SDS011;59146;43.850;25.948;2022-08-21T11:26:00;11.90;;;6.65;;
71343;SDS011;59146;43.850;25.948;2022-08-21T11:28:33;16.13;;;5.93;;
71343;SDS011;59146;43.850;25.948;2022-08-21T11:31:27;12.20;;;5.53;;
71343;SDS011;59146;43.850;25.948;2022-08-21T11:36:38;15.88;;;5.65;;
71343;SDS011;59146;43.850;25.948;2022-08-21T11:39:21;11.63;;;5.90;;
71343;SDS011;59146;43.850;25.948;2022-08-21T11:41:54;14.73;;;5.90;;
71343;SDS011;59146;43.850;25.948;2022-08-21T11:47:24;8.30;;;5.85;;
71343;SDS011;59146;43.850;25.948;2022-08-21T11:50:13;15.70;;;5.68;;
71343;SDS011;59146;43.850;25.948;2022-08-21T11:52:52;16.27;;;6.32;;
71343;SDS011;59146;43.850;25.948;2022-08-21T11:55:32;11.07;;;6.47;;
71343;SDS011;59146;43.850;25.948;2022-08-21T12:03:31;17.73;;;7.03;;
71343;SDS011;59146;43.850;25.948;2022-08-21T12:08:36;13.50;;;6.03;;
71343;SDS011;59146;43.850;25.948;2022-08-21T12:11:06;13.60;;;6.70;;
71343;SDS011;59146;43.850;25.948;2022-08-21T12:13:39;21.23;;;6.20;;
71343;SDS011;59146;43.850;25.948;2022-08-21T12:16:28;16.45;;;6.03;;
71343;SDS011;59146;43.850;25.948;2022-08-21T12:21:59;11.70;;;6.13;;
71343;SDS011;59146;43.850;25.948;2022-08-21T12:24:41;14.75;;;5.53;;
71343;SDS011;59146;43.850;25.948;2022-08-21T12:29:38;10.10;;;5.00;;
71343;SDS011;59146;43.850;25.948;2022-08-21T12:34:40;8.65;;;5.25;;
71343;SDS011;59146;43.850;25.948;2022-08-21T12:37:22;14.70;;;5.43;;
71343;SDS011;59146;43.850;25.948;2022-08-21T12:39:55;11.77;;;4.32;;
71343;SDS011;59146;43.850;25.948;2022-08-21T12:45:11;13.88;;;4.80;;
71343;SDS011;59146;43.850;25.948;2022-08-21T12:50:17;10.93;;;5.00;;
71343;SDS011;59146;43.850;25.948;2022-08-21T12:52:45;9.10;;;4.43;;
71343;SDS011;59146;43.850;25.948;2022-08-21T12:55:25;10.63;;;4.78;;
71343;SDS011;59146;43.850;25.948;2022-08-21T12:57:53;10.43;;;4.97;;
71343;SDS011;59146;43.850;25.948;2022-08-21T13:00:21;7.78;;;4.57;;
71343;SDS011;59146;43.850;25.948;2022-08-21T13:02:50;10.23;;;5.10;;
71343;SDS011;59146;43.850;25.948;2022-08-21T13:05:30;8.32;;;5.07;;
71343;SDS011;59146;43.850;25.948;2022-08-21T13:07:58;17.15;;;5.45;;
71343;SDS011;59146;43.850;25.948;2022-08-21T13:10:29;11.98;;;5.35;;
71343;SDS011;59146;43.850;25.948;2022-08-21T13:12:57;14.45;;;6.40;;
71343;SDS011;59146;43.850;25.948;2022-08-21T13:15:29;11.85;;;5.55;;
71343;SDS011;59146;43.850;25.948;2022-08-21T13:17:57;12.40;;;5.75;;
71343;SDS011;59146;43.850;25.948;2022-08-21T13:20:36;9.25;;;4.78;;
71343;SDS011;59146;43.850;25.948;2022-08-21T13:23:07;11.13;;;4.78;;
71343;SDS011;59146;43.850;25.948;2022-08-21T13:25:44;16.15;;;5.20;;
71343;SDS011;59146;43.850;25.948;2022-08-21T13:28:10;15.43;;;5.35;;
71343;SDS011;59146;43.850;25.948;2022-08-21T13:30:41;13.18;;;5.70;;
71343;SDS011;59146;43.850;25.948;2022-08-21T13:33:09;16.17;;;5.20;;
71343;SDS011;59146;43.850;25.948;2022-08-21T13:35:51;14.20;;;5.53;;
71343;SDS011;59146;43.850;25.948;2022-08-21T13:38:28;17.25;;;5.43;;
71343;SDS011;59146;43.850;25.948;2022-08-21T13:40:58;11.27;;;4.78;;
71343;SDS011;59146;43.850;25.948;2022-08-21T13:43:31;11.55;;;5.68;;
71343;SDS011;59146;43.850;25.948;2022-08-21T13:45:58;10.95;;;5.95;;
71343;SDS011;59146;43.850;25.948;2022-08-21T13:48:26;17.48;;;6.05;;
71343;SDS011;59146;43.850;25.948;2022-08-21T13:50:54;13.07;;;6.50;;
71343;SDS011;59146;43.850;25.948;2022-08-21T13:53:35;14.57;;;5.90;;
71343;SDS011;59146;43.850;25.948;2022-08-21T13:56:31;15.57;;;6.95;;
71343;SDS011;59146;43.850;25.948;2022-08-21T13:59:05;14.85;;;6.80;;
71343;SDS011;59146;43.850;25.948;2022-08-21T14:01:39;20.20;;;7.63;;
71343;SDS011;59146;43.850;25.948;2022-08-21T14:04:18;14.68;;;7.30;;
71343;SDS011;59146;43.850;25.948;2022-08-21T14:06:47;13.30;;;6.88;;
71343;SDS011;59146;43.850;25.948;2022-08-21T14:09:29;13.63;;;6.35;;
71343;SDS011;59146;43.850;25.948;2022-08-21T14:11:58;10.85;;;5.68;;
71343;SDS011;59146;43.850;25.948;2022-08-21T14:14:30;11.30;;;5.63;;
71343;SDS011;59146;43.850;25.948;2022-08-21T14:17:00;16.05;;;6.22;;
71343;SDS011;59146;43.850;25.948;2022-08-21T14:19:44;19.52;;;5.93;;
71343;SDS011;59146;43.850;25.948;2022-08-21T14:24:58;14.82;;;7.03;;
71343;SDS011;59146;43.850;25.948;2022-08-21T14:27:26;18.30;;;6.53;;
71343;SDS011;59146;43.850;25.948;2022-08-21T14:29:57;20.23;;;6.57;;
71343;SDS011;59146;43.850;25.948;2022-08-21T14:32:25;14.17;;;6.07;;
71343;SDS011;59146;43.850;25.948;2022-08-21T14:34:55;13.80;;;6.90;;
71343;SDS011;59146;43.850;25.948;2022-08-21T14:37:21;21.90;;;6.22;;
71343;SDS011;59146;43.850;25.948;2022-08-21T14:39:48;14.05;;;6.25;;
71343;SDS011;59146;43.850;25.948;2022-08-21T14:42:13;8.95;;;4.85;;
71343;SDS011;59146;43.850;25.948;2022-08-21T14:44:39;10.77;;;5.13;;
71343;SDS011;59146;43.850;25.948;2022-08-21T14:47:04;9.82;;;5.88;;
71343;SDS011;59146;43.850;25.948;2022-08-21T14:49:30;14.90;;;5.45;;
71343;SDS011;59146;43.850;25.948;2022-08-21T14:51:56;12.80;;;5.55;;
71343;SDS011;59146;43.850;25.948;2022-08-21T14:54:22;14.82;;;5.63;;
71343;SDS011;59146;43.850;25.948;2022-08-21T14:56:49;9.73;;;4.75;;
71343;SDS011;59146;43.850;25.948;2022-08-21T14:59:15;12.48;;;4.90;;
71343;SDS011;59146;43.850;25.948;2022-08-21T15:01:41;9.25;;;5.28;;
71343;SDS011;59146;43.850;25.948;2022-08-21T15:04:07;9.43;;;5.20;;
71343;SDS011;59146;43.850;25.948;2022-08-21T15:06:32;13.15;;;5.35;;
71343;SDS011;59146;43.850;25.948;2022-08-21T15:08:58;10.48;;;4.97;;
71343;SDS011;59146;43.850;25.948;2022-08-21T15:11:23;15.38;;;5.82;;
71343;SDS011;59146;43.850;25.948;2022-08-21T15:13:52;13.73;;;5.60;;
71343;SDS011;59146;43.850;25.948;2022-08-21T15:16:20;14.88;;;5.35;;
71343;SDS011;59146;43.850;25.948;2022-08-21T15:18:45;13.52;;;5.07;;
71343;SDS011;59146;43.850;25.948;2022-08-21T15:21:11;8.57;;;4.65;;
71343;SDS011;59146;43.850;25.948;2022-08-21T15:23:36;9.93;;;4.55;;
71343;SDS011;59146;43.850;25.948;2022-08-21T15:26:02;12.23;;;4.75;;
71343;SDS011;59146;43.850;25.948;2022-08-21T15:28:28;13.15;;;5.40;;
71343;SDS011;59146;43.850;25.948;2022-08-21T15:30:54;13.93;;;4.60;;
71343;SDS011;59146;43.850;25.948;2022-08-21T15:33:19;8.23;;;4.60;;
71343;SDS011;59146;43.850;25.948;2022-08-21T15:35:45;12.18;;;4.68;;
71343;SDS011;59146;43.850;25.948;2022-08-21T15:38:11;8.80;;;3.95;;
71343;SDS011;59146;43.850;25.948;2022-08-21T15:40:37;15.57;;;4.68;;
71343;SDS011;59146;43.850;25.948;2022-08-21T15:43:05;7.72;;;4.07;;
71343;SDS011;59146;43.850;25.948;2022-08-21T15:45:45;13.15;;;4.75;;
71343;SDS011;59146;43.850;25.948;2022-08-21T15:48:11;12.55;;;5.10;;
71343;SDS011;59146;43.850;25.948;2022-08-21T15:50:36;12.27;;;4.50;;
71343;SDS011;59146;43.850;25.948;2022-08-21T15:53:02;15.32;;;4.82;;
71343;SDS011;59146;43.850;25.948;2022-08-21T15:55:31;9.32;;;4.80;;
71343;SDS011;59146;43.850;25.948;2022-08-21T15:57:59;15.90;;;6.10;;
71343;SDS011;59146;43.850;25.948;2022-08-21T16:00:24;12.43;;;5.28;;
71343;SDS011;59146;43.850;25.948;2022-08-21T16:02:51;11.48;;;5.55;;